x

Edisto - 41 Nm Southeast Of Charleston, Sc (41004) Wave Buoy

1:50pm - Sat 26th Jul 2014 All times are EDT. -4 hours from GMT.

  • Sig Wave height 3.3ft
  • Swell Direction
  • Peak Period 5s
  • Average Period 5s
  • Wind
    9mph, 11mph gusts
  • Sea Temp 84°f
  • Air Temp 83°f
  • Sea Pressure 1016.5mb
  • Edisto - 41 Nm Southeast Of Charleston, Sc
  • Edisto - 41 Nm Southeast Of Charleston, Sc

More Historic Weather Station data

Upgrade to MSW Pro to gain access to the past 30 days of data for over 8000 Wavebouys and Weather Stations around the globe.

Join Pro

Comparision Forecast

View Surf forecast
   
Sat 07/26 1:50pm 3.5ft 5s 5s 9 11 mph 1016.5mb 84f 83f
12:50pm 3.5ft 5s 5s 9
mph
1016.7mb 83f 82f
11:50am 3.5ft 6s 5s 9 11 mph 1016.9mb 83f 82f
10:50am 3.5ft 5s 4s 13 16 mph 1016.6mb 82f 83f
9:50am 3ft 6s 4s 13 18 mph 1016mb 82f 83f
8:50am 3.5ft 6s 5s 13 16 mph 1015.7mb 83f 83f
7:50am 3ft 5s 5s 13 16 mph 1015.7mb 82f 82f
6:50am 3ft 5s 5s 11 13 mph 1015.6mb 82f 82f
5:50am 3ft 5s 5s 9 11 mph 1015.3mb 83f 82f
4:50am 3.5ft 5s 5s 11 13 mph 1015mb 83f 82f
3:50am 3.5ft 5s 5s 11 13 mph 1014.8mb 83f 81f
2:50am 3ft 5s 4s 11 13 mph 1014.6mb 83f 80f
1:50am 3.5ft 5s 4s 9 13 mph 1015.4mb 83f 79f
12:50am 2.5ft 5s 4s 13 16 mph 1016mb 83f 83f
Fri 07/25 11:50pm 2.5ft 5s 4s 13 16 mph 1015.8mb 83f 83f
10:50pm 3ft 5s 4s 13 16 mph 1016.4mb 83f 83f
9:50pm 2.5ft 5s 4s 13 16 mph 1016mb 83f 83f
8:50pm 2.5ft 5s 4s 13 18 mph 1015.2mb 83f 83f
7:50pm 2.5ft 5s 4s 13 16 mph 1015.4mb 83f 83f
6:50pm 2.5ft 5s 4s 13 16 mph 1014.5mb 83f 82f
5:50pm 3ft 5s 4s 4 7 mph 1015.1mb 83f 80f
4:50pm 3ft 4s 4s 11 13 mph 1015.9mb 83f 83f
3:50pm 3ft 5s 4s 13 18 mph 1015.1mb 83f 83f
2:50pm 3.5ft 5s 5s 16 18 mph 1015.2mb 83f 82f
1:50pm 3.5ft 5s 5s 11 13 mph 1016.1mb 83f 82f
12:50pm 3.5ft 5s 5s 11 13 mph 1016.2mb 83f 82f
11:50am 3.5ft 5s 5s 11 13 mph 1016.3mb 82f 82f
10:50am 3.5ft 5s 5s 11 13 mph 1016.7mb 82f 82f
9:50am 3.5ft 6s 5s 13 16 mph 1016.1mb 82f 82f
8:50am 4ft 6s 5s 13 16 mph 1015.4mb 82f 82f
7:50am 4ft 6s 5s 11 13 mph 1015mb 82f 83f
6:50am 4.5ft 6s 5s 11 13 mph 1014.4mb 82f 83f
5:50am 4.5ft 5s 5s 16 20 mph 1014.2mb 83f 83f
4:50am 4.5ft 5s 5s 16 20 mph 1013.5mb 83f 83f
3:50am 4.5ft 5s 4s 18 22 mph 1013.1mb 83f 83f
2:50am 4.5ft 5s 4s 22 27 mph 1013.3mb 83f 83f
1:50am 4.5ft 5s 4s 20 25 mph 1013.5mb 83f 83f
12:50am 4ft 5s 4s 20 22 mph 1013.6mb 83f 83f
Thu 07/24 11:50pm 4ft 5s 4s 22 25 mph 1013.4mb 83f 83f
10:50pm 4ft 5s 4s 20 25 mph 1013.1mb 83f 83f
9:50pm 4ft 5s 4s 20 25 mph 1012.8mb 83f 83f
8:50pm 4.5ft 5s 4s 20 25 mph 1012.2mb 83f 83f
7:50pm 3.5ft 5s 4s 22 25 mph 1011.7mb 83f 83f
6:50pm 4ft 5s 4s 20 25 mph 1011.5mb 83f 83f
5:50pm 3.5ft 5s 4s 20 22 mph 1011.8mb 83f 83f
4:50pm 3.5ft 5s 4s 20 25 mph 1012.1mb 83f 82f
3:50pm 3.5ft 6s 4s 20 22 mph 1012.7mb 83f 83f
2:50pm 3.5ft 5s 4s 16 18 mph 1013.2mb 83f 83f
1:50pm 3.5ft 6s 5s 16 18 mph 1013.9mb 83f 83f
12:50pm 3.5ft 6s 5s 13 16 mph 1014.4mb 83f 83f
11:50am 3.5ft 7s 5s 13 16 mph 1014.6mb 83f 82f
10:50am 3.5ft 6s 5s 13 16 mph 1014.8mb 83f 82f
9:50am 3.5ft 6s 5s 13 16 mph 1014.5mb 82f 82f
8:50am 3.5ft 6s 5s 16 18 mph 1014.3mb 82f 82f
7:50am 3.5ft 6s 5s 16 18 mph 1014.1mb 82f 82f
6:50am 3.5ft 6s 4s 18 20 mph 1013.9mb 82f 82f
5:50am 3.5ft 6s 4s 18 20 mph 1013.7mb 82f 82f
4:50am 3.5ft 6s 4s 18 20 mph 1013.5mb 82f 82f
3:50am 3.5ft 7s 4s 20 25 mph 1013.6mb 82f 82f
2:50am 3.5ft 6s 4s 18 20 mph 1014.4mb 82f 82f
1:50am 3ft 7s 4s 16 18 mph 1014.8mb 82f 82f
12:50am 3ft 6s 5s 16 18 mph 1015.1mb 82f 82f
Wed 07/23 11:50pm 3ft 6s 5s 16 18 mph 1015mb 82f 82f
10:50pm 3ft 7s 5s 16 18 mph 1015mb 82f 82f
9:50pm 3ft 6s 5s 13 16 mph 1015mb 83f 82f
8:50pm 3ft 7s 5s 11 13 mph 1015.1mb 83f 82f
7:50pm 3ft 6s 5s 11 13 mph 1015.1mb 83f 82f
6:50pm 3ft 6s 5s 13
mph
1015.3mb 83f 82f
5:50pm 2.5ft 6s 5s 13 16 mph 1015.5mb 83f 83f
4:50pm 3.5ft 7s 6s 11 13 mph 1015.7mb 83f 82f
3:50pm 3ft 7s 6s 9 11 mph 1016.6mb 84f 82f
2:50pm 3ft 6s 6s 4 7 mph 1017.2mb 84f 81f
1:50pm 3ft 7s 6s 4
mph
1017.9mb 84f 80f
12:50pm 3ft 7s 6s 4
mph
1018mb 82f 79f
11:50am 3ft 7s 5s 4
mph
1018.4mb 82f 78f
10:50am 3ft 7s 5s 9 11 mph 1018.1mb 83f 80f
9:50am 3ft 6s 6s 2 4 mph 1018.1mb 82f 81f
8:50am 2.5ft 7s 5s 7
mph
1017.6mb 82f 80f
7:50am 2.5ft 7s 6s 9 11 mph 1017.5mb 82f 80f
6:50am 3ft 8s 5s  -  2 mph 1017.3mb 82f 80f
5:50am 3ft 6s 5s 2
mph
1017.2mb 82f 80f
4:50am 3ft 8s 5s 4 7 mph 1016.9mb 82f 81f
3:50am 3ft 8s 5s 7 9 mph 1016.9mb 82f 81f
2:50am 3ft 6s 5s 9 13 mph 1017.3mb 82f 81f
1:50am 3ft 7s 5s 9
mph
1017.7mb 82f 81f
12:50am 3ft 7s 5s 9 11 mph 1018.1mb 82f 81f
Tue 07/22 11:50pm 3ft 7s 5s 11 13 mph 1018.6mb 82f 81f
10:50pm 3ft 8s 5s 11 13 mph 1018.7mb 82f 82f
9:50pm 3ft 7s 5s 11 16 mph 1018.5mb 82f 81f
8:50pm 2.5ft 8s 5s 13 16 mph 1018.1mb 82f 80f
7:50pm 2.5ft 8s 5s 16 18 mph 1018.2mb 82f 80f